sensor_id;sensor_type;location;lat;lon;timestamp;temperature;humidity
71523;HTU21D;59343;51.102;5.884;2022-11-27T00:01:25;7.68;77.50
71523;HTU21D;59343;51.102;5.884;2022-11-27T00:03:53;7.65;77.40
71523;HTU21D;59343;51.102;5.884;2022-11-27T00:06:25;7.63;77.53
71523;HTU21D;59343;51.102;5.884;2022-11-27T00:08:51;7.60;77.37
71523;HTU21D;59343;51.102;5.884;2022-11-27T00:11:21;7.54;77.33
71523;HTU21D;59343;51.102;5.884;2022-11-27T00:13:48;7.46;77.38
71523;HTU21D;59343;51.102;5.884;2022-11-27T00:16:20;7.43;77.37
71523;HTU21D;59343;51.102;5.884;2022-11-27T00:18:46;7.41;77.47
71523;HTU21D;59343;51.102;5.884;2022-11-27T00:21:25;7.40;77.44
71523;HTU21D;59343;51.102;5.884;2022-11-27T00:23:55;7.35;77.50
71523;HTU21D;59343;51.102;5.884;2022-11-27T00:26:22;7.31;77.61
71523;HTU21D;59343;51.102;5.884;2022-11-27T00:28:53;7.29;77.65
71523;HTU21D;59343;51.102;5.884;2022-11-27T00:31:28;7.27;77.60
71523;HTU21D;59343;51.102;5.884;2022-11-27T00:33:56;7.23;77.65
71523;HTU21D;59343;51.102;5.884;2022-11-27T00:36:23;7.19;77.66
71523;HTU21D;59343;51.102;5.884;2022-11-27T00:38:50;7.13;77.54
71523;HTU21D;59343;51.102;5.884;2022-11-27T00:41:23;7.07;77.50
71523;HTU21D;59343;51.102;5.884;2022-11-27T00:43:51;7.01;77.54
71523;HTU21D;59343;51.102;5.884;2022-11-27T00:46:22;6.99;77.76
71523;HTU21D;59343;51.102;5.884;2022-11-27T00:48:48;6.96;77.67
71523;HTU21D;59343;51.102;5.884;2022-11-27T00:51:17;6.90;77.57
71523;HTU21D;59343;51.102;5.884;2022-11-27T00:53:44;6.87;77.65
71523;HTU21D;59343;51.102;5.884;2022-11-27T00:56:22;6.84;77.68
71523;HTU21D;59343;51.102;5.884;2022-11-27T00:58:49;6.84;77.82
71523;HTU21D;59343;51.102;5.884;2022-11-27T01:01:18;6.83;77.93
71523;HTU21D;59343;51.102;5.884;2022-11-27T01:03:46;6.79;77.95
71523;HTU21D;59343;51.102;5.884;2022-11-27T01:06:13;6.75;78.06
71523;HTU21D;59343;51.102;5.884;2022-11-27T01:08:40;6.73;78.08
71523;HTU21D;59343;51.102;5.884;2022-11-27T01:11:07;6.71;78.11
71523;HTU21D;59343;51.102;5.884;2022-11-27T01:13:40;6.69;78.19
71523;HTU21D;59343;51.102;5.884;2022-11-27T01:16:12;6.70;78.32
71523;HTU21D;59343;51.102;5.884;2022-11-27T01:18:41;6.67;78.34
71523;HTU21D;59343;51.102;5.884;2022-11-27T01:21:07;6.64;78.28
71523;HTU21D;59343;51.102;5.884;2022-11-27T01:23:36;6.63;78.34
71523;HTU21D;59343;51.102;5.884;2022-11-27T01:26:07;6.59;78.37
71523;HTU21D;59343;51.102;5.884;2022-11-27T01:28:35;6.59;78.38
71523;HTU21D;59343;51.102;5.884;2022-11-27T01:31:16;6.56;78.18
71523;HTU21D;59343;51.102;5.884;2022-11-27T01:33:44;6.51;78.11
71523;HTU21D;59343;51.102;5.884;2022-11-27T01:36:13;6.49;78.18
71523;HTU21D;59343;51.102;5.884;2022-11-27T01:38:39;6.45;78.23
71523;HTU21D;59343;51.102;5.884;2022-11-27T01:41:27;6.44;78.29
71523;HTU21D;59343;51.102;5.884;2022-11-27T01:47:04;6.38;78.03
71523;HTU21D;59343;51.102;5.884;2022-11-27T01:49:45;6.39;78.11
71523;HTU21D;59343;51.102;5.884;2022-11-27T01:52:13;6.40;78.32
71523;HTU21D;59343;51.102;5.884;2022-11-27T01:57:56;6.41;78.94
71523;HTU21D;59343;51.102;5.884;2022-11-27T02:00:16;6.44;79.13
71523;HTU21D;59343;51.102;5.884;2022-11-27T02:02:47;6.45;79.13
71523;HTU21D;59343;51.102;5.884;2022-11-27T02:05:19;6.50;79.14
71523;HTU21D;59343;51.102;5.884;2022-11-27T02:07:46;6.52;79.04
71523;HTU21D;59343;51.102;5.884;2022-11-27T02:10:14;6.55;78.96
71523;HTU21D;59343;51.102;5.884;2022-11-27T02:12:44;6.57;78.95
71523;HTU21D;59343;51.102;5.884;2022-11-27T02:15:33;6.61;78.89
71523;HTU21D;59343;51.102;5.884;2022-11-27T02:18:13;6.65;78.68
71523;HTU21D;59343;51.102;5.884;2022-11-27T02:21:07;6.69;78.53
71523;HTU21D;59343;51.102;5.884;2022-11-27T02:24:31;6.70;78.43
71523;HTU21D;59343;51.102;5.884;2022-11-27T02:29:24;6.70;78.28
71523;HTU21D;59343;51.102;5.884;2022-11-27T02:32:01;6.71;78.30
71523;HTU21D;59343;51.102;5.884;2022-11-27T02:34:42;6.68;78.50
71523;HTU21D;59343;51.102;5.884;2022-11-27T02:37:47;6.66;78.54
71523;HTU21D;59343;51.102;5.884;2022-11-27T02:40:28;6.66;78.65
71523;HTU21D;59343;51.102;5.884;2022-11-27T02:43:02;6.67;78.56
71523;HTU21D;59343;51.102;5.884;2022-11-27T02:45:52;6.69;78.63
71523;HTU21D;59343;51.102;5.884;2022-11-27T02:48:23;6.68;78.67
71523;HTU21D;59343;51.102;5.884;2022-11-27T02:50:53;6.67;78.75
71523;HTU21D;59343;51.102;5.884;2022-11-27T02:53:32;6.69;78.79
71523;HTU21D;59343;51.102;5.884;2022-11-27T02:56:09;6.70;78.78
71523;HTU21D;59343;51.102;5.884;2022-11-27T02:58:37;6.69;78.95
71523;HTU21D;59343;51.102;5.884;2022-11-27T03:01:06;6.74;79.04
71523;HTU21D;59343;51.102;5.884;2022-11-27T03:03:40;6.78;78.86
71523;HTU21D;59343;51.102;5.884;2022-11-27T03:06:19;6.78;78.91
71523;HTU21D;59343;51.102;5.884;2022-11-27T03:08:57;6.81;78.99
71523;HTU21D;59343;51.102;5.884;2022-11-27T03:11:26;6.82;78.85
71523;HTU21D;59343;51.102;5.884;2022-11-27T03:14:03;6.82;78.95
71523;HTU21D;59343;51.102;5.884;2022-11-27T03:22:07;6.88;78.90
71523;HTU21D;59343;51.102;5.884;2022-11-27T03:24:34;6.91;78.63
71523;HTU21D;59343;51.102;5.884;2022-11-27T03:27:01;6.91;78.76
71523;HTU21D;59343;51.102;5.884;2022-11-27T03:32:01;6.95;78.92
71523;HTU21D;59343;51.102;5.884;2022-11-27T03:34:27;6.96;78.94
71523;HTU21D;59343;51.102;5.884;2022-11-27T03:36:53;6.99;78.85
71523;HTU21D;59343;51.102;5.884;2022-11-27T03:39:23;7.04;78.66
71523;HTU21D;59343;51.102;5.884;2022-11-27T04:01:09;7.14;78.49
71523;HTU21D;59343;51.102;5.884;2022-11-27T04:03:36;7.15;78.49
71523;HTU21D;59343;51.102;5.884;2022-11-27T04:06:02;7.16;78.56
71523;HTU21D;59343;51.102;5.884;2022-11-27T04:08:29;7.18;78.56
71523;HTU21D;59343;51.102;5.884;2022-11-27T04:10:55;7.18;78.61
71523;HTU21D;59343;51.102;5.884;2022-11-27T04:13:20;7.16;78.60
71523;HTU21D;59343;51.102;5.884;2022-11-27T04:15:46;7.16;78.65
71523;HTU21D;59343;51.102;5.884;2022-11-27T04:18:12;7.16;78.62
71523;HTU21D;59343;51.102;5.884;2022-11-27T04:20:41;7.15;78.56
71523;HTU21D;59343;51.102;5.884;2022-11-27T04:23:16;7.14;78.62
71523;HTU21D;59343;51.102;5.884;2022-11-27T04:25:46;7.14;78.61
71523;HTU21D;59343;51.102;5.884;2022-11-27T04:28:12;7.16;78.68
71523;HTU21D;59343;51.102;5.884;2022-11-27T04:30:38;7.17;78.63
71523;HTU21D;59343;51.102;5.884;2022-11-27T04:33:04;7.17;78.68
71523;HTU21D;59343;51.102;5.884;2022-11-27T04:35:31;7.17;78.72
71523;HTU21D;59343;51.102;5.884;2022-11-27T04:37:57;7.17;78.71
71523;HTU21D;59343;51.102;5.884;2022-11-27T04:40:23;7.17;78.84
71523;HTU21D;59343;51.102;5.884;2022-11-27T04:42:52;7.20;78.87
71523;HTU21D;59343;51.102;5.884;2022-11-27T04:45:19;7.23;78.82
71523;HTU21D;59343;51.102;5.884;2022-11-27T04:47:45;7.23;78.72
71523;HTU21D;59343;51.102;5.884;2022-11-27T04:50:11;7.25;78.52
71523;HTU21D;59343;51.102;5.884;2022-11-27T04:52:37;7.27;78.50
71523;HTU21D;59343;51.102;5.884;2022-11-27T04:55:04;7.26;78.55
71523;HTU21D;59343;51.102;5.884;2022-11-27T04:57:30;7.26;78.50
71523;HTU21D;59343;51.102;5.884;2022-11-27T04:59:56;7.24;78.56
71523;HTU21D;59343;51.102;5.884;2022-11-27T05:02:22;7.25;78.63
71523;HTU21D;59343;51.102;5.884;2022-11-27T05:04:48;7.26;78.61
71523;HTU21D;59343;51.102;5.884;2022-11-27T05:07:17;7.27;78.63
71523;HTU21D;59343;51.102;5.884;2022-11-27T05:09:49;7.28;78.53
71523;HTU21D;59343;51.102;5.884;2022-11-27T05:12:15;7.30;78.46
71523;HTU21D;59343;51.102;5.884;2022-11-27T05:14:41;7.30;78.46
71523;HTU21D;59343;51.102;5.884;2022-11-27T05:17:08;7.31;78.49
71523;HTU21D;59343;51.102;5.884;2022-11-27T05:19:34;7.31;78.46
71523;HTU21D;59343;51.102;5.884;2022-11-27T05:22:00;7.31;78.48
71523;HTU21D;59343;51.102;5.884;2022-11-27T05:24:27;7.31;78.47
71523;HTU21D;59343;51.102;5.884;2022-11-27T05:26:54;7.33;78.56
71523;HTU21D;59343;51.102;5.884;2022-11-27T05:29:26;7.31;78.53
71523;HTU21D;59343;51.102;5.884;2022-11-27T05:31:52;7.34;78.48
71523;HTU21D;59343;51.102;5.884;2022-11-27T05:34:18;7.34;78.37
71523;HTU21D;59343;51.102;5.884;2022-11-27T05:36:44;7.35;78.45
71523;HTU21D;59343;51.102;5.884;2022-11-27T05:39:10;7.33;78.27
71523;HTU21D;59343;51.102;5.884;2022-11-27T05:41:38;7.32;78.37
71523;HTU21D;59343;51.102;5.884;2022-11-27T05:44:05;7.33;78.50
71523;HTU21D;59343;51.102;5.884;2022-11-27T05:49:19;7.32;78.43
71523;HTU21D;59343;51.102;5.884;2022-11-27T05:51:45;7.33;78.53
71523;HTU21D;59343;51.102;5.884;2022-11-27T05:54:11;7.32;78.50
71523;HTU21D;59343;51.102;5.884;2022-11-27T05:56:37;7.32;78.64
71523;HTU21D;59343;51.102;5.884;2022-11-27T05:59:02;7.34;78.81
71523;HTU21D;59343;51.102;5.884;2022-11-27T06:01:29;7.35;78.73
71523;HTU21D;59343;51.102;5.884;2022-11-27T06:03:55;7.37;78.73
71523;HTU21D;59343;51.102;5.884;2022-11-27T06:06:21;7.39;78.69
71523;HTU21D;59343;51.102;5.884;2022-11-27T06:08:47;7.41;78.62
71523;HTU21D;59343;51.102;5.884;2022-11-27T06:11:17;7.43;78.69
71523;HTU21D;59343;51.102;5.884;2022-11-27T06:13:44;7.46;78.73
71523;HTU21D;59343;51.102;5.884;2022-11-27T06:16:17;7.46;78.59
71523;HTU21D;59343;51.102;5.884;2022-11-27T06:18:44;7.49;78.59
71523;HTU21D;59343;51.102;5.884;2022-11-27T06:21:12;7.52;78.66
71523;HTU21D;59343;51.102;5.884;2022-11-27T06:23:40;7.54;78.64
71523;HTU21D;59343;51.102;5.884;2022-11-27T06:26:18;7.54;78.69
71523;HTU21D;59343;51.102;5.884;2022-11-27T06:28:46;7.57;78.59
71523;HTU21D;59343;51.102;5.884;2022-11-27T06:31:16;7.58;78.47
71523;HTU21D;59343;51.102;5.884;2022-11-27T06:33:42;7.57;78.43
71523;HTU21D;59343;51.102;5.884;2022-11-27T06:36:09;7.57;78.56
71523;HTU21D;59343;51.102;5.884;2022-11-27T06:38:36;7.58;78.62
71523;HTU21D;59343;51.102;5.884;2022-11-27T06:41:08;7.57;78.68
71523;HTU21D;59343;51.102;5.884;2022-11-27T06:43:34;7.56;78.69
71523;HTU21D;59343;51.102;5.884;2022-11-27T06:46:02;7.55;78.77
71523;HTU21D;59343;51.102;5.884;2022-11-27T06:48:28;7.55;78.85
71523;HTU21D;59343;51.102;5.884;2022-11-27T06:50:59;7.56;79.02
71523;HTU21D;59343;51.102;5.884;2022-11-27T06:53:25;7.58;78.95
71523;HTU21D;59343;51.102;5.884;2022-11-27T06:55:51;7.59;78.92
71523;HTU21D;59343;51.102;5.884;2022-11-27T06:58:17;7.62;78.87
71523;HTU21D;59343;51.102;5.884;2022-11-27T07:00:43;7.65;78.77
71523;HTU21D;59343;51.102;5.884;2022-11-27T07:03:09;7.69;78.69
71523;HTU21D;59343;51.102;5.884;2022-11-27T07:05:35;7.71;78.77
71523;HTU21D;59343;51.102;5.884;2022-11-27T07:08:01;7.71;78.85
71523;HTU21D;59343;51.102;5.884;2022-11-27T07:10:28;7.72;78.72
71523;HTU21D;59343;51.102;5.884;2022-11-27T07:12:53;7.73;78.81
71523;HTU21D;59343;51.102;5.884;2022-11-27T07:15:19;7.74;78.77
71523;HTU21D;59343;51.102;5.884;2022-11-27T07:17:45;7.76;78.66
71523;HTU21D;59343;51.102;5.884;2022-11-27T07:20:12;7.78;78.79
71523;HTU21D;59343;51.102;5.884;2022-11-27T07:22:37;7.78;78.79
71523;HTU21D;59343;51.102;5.884;2022-11-27T07:25:04;7.79;78.76
71523;HTU21D;59343;51.102;5.884;2022-11-27T07:27:30;7.82;78.88
71523;HTU21D;59343;51.102;5.884;2022-11-27T07:29:56;7.85;78.95
71523;HTU21D;59343;51.102;5.884;2022-11-27T07:32:22;7.85;78.89
71523;HTU21D;59343;51.102;5.884;2022-11-27T07:34:48;7.87;78.88
71523;HTU21D;59343;51.102;5.884;2022-11-27T07:37:13;7.88;78.86
71523;HTU21D;59343;51.102;5.884;2022-11-27T07:39:39;7.91;78.91
71523;HTU21D;59343;51.102;5.884;2022-11-27T07:42:05;7.91;78.95
71523;HTU21D;59343;51.102;5.884;2022-11-27T07:44:31;7.93;78.88
71523;HTU21D;59343;51.102;5.884;2022-11-27T07:46:57;7.94;79.02
71523;HTU21D;59343;51.102;5.884;2022-11-27T07:49:23;7.98;79.16
71523;HTU21D;59343;51.102;5.884;2022-11-27T07:51:49;7.97;79.15
71523;HTU21D;59343;51.102;5.884;2022-11-27T07:54:15;7.97;79.24
71523;HTU21D;59343;51.102;5.884;2022-11-27T07:56:41;7.94;79.20
71523;HTU21D;59343;51.102;5.884;2022-11-27T07:59:07;7.96;79.32
71523;HTU21D;59343;51.102;5.884;2022-11-27T08:01:33;7.98;79.38
71523;HTU21D;59343;51.102;5.884;2022-11-27T08:03:59;7.97;79.37
71523;HTU21D;59343;51.102;5.884;2022-11-27T08:06:26;8.00;79.53
71523;HTU21D;59343;51.102;5.884;2022-11-27T08:08:53;8.01;79.48
71523;HTU21D;59343;51.102;5.884;2022-11-27T08:11:24;8.03;79.52
71523;HTU21D;59343;51.102;5.884;2022-11-27T08:13:56;8.03;79.53
71523;HTU21D;59343;51.102;5.884;2022-11-27T08:16:22;8.03;79.82
71523;HTU21D;59343;51.102;5.884;2022-11-27T08:18:48;8.06;79.96
71523;HTU21D;59343;51.102;5.884;2022-11-27T08:21:14;8.07;80.14
71523;HTU21D;59343;51.102;5.884;2022-11-27T08:23:40;8.11;80.07
71523;HTU21D;59343;51.102;5.884;2022-11-27T08:26:07;8.13;80.07
71523;HTU21D;59343;51.102;5.884;2022-11-27T08:28:34;8.14;80.16
71523;HTU21D;59343;51.102;5.884;2022-11-27T08:31:02;8.14;80.20
71523;HTU21D;59343;51.102;5.884;2022-11-27T08:33:30;8.17;80.21
71523;HTU21D;59343;51.102;5.884;2022-11-27T08:35:56;8.17;80.34
71523;HTU21D;59343;51.102;5.884;2022-11-27T08:38:22;8.19;80.30
71523;HTU21D;59343;51.102;5.884;2022-11-27T08:41:01;8.17;80.36
71523;HTU21D;59343;51.102;5.884;2022-11-27T08:43:28;8.18;80.46
71523;HTU21D;59343;51.102;5.884;2022-11-27T08:45:55;8.20;80.56
71523;HTU21D;59343;51.102;5.884;2022-11-27T08:48:21;8.18;80.65
71523;HTU21D;59343;51.102;5.884;2022-11-27T08:50:50;8.15;80.81
71523;HTU21D;59343;51.102;5.884;2022-11-27T08:53:17;8.15;80.91
71523;HTU21D;59343;51.102;5.884;2022-11-27T08:55:43;8.15;81.02
71523;HTU21D;59343;51.102;5.884;2022-11-27T08:58:09;8.15;81.14
71523;HTU21D;59343;51.102;5.884;2022-11-27T09:00:36;8.14;81.17
71523;HTU21D;59343;51.102;5.884;2022-11-27T09:03:03;8.15;81.26
71523;HTU21D;59343;51.102;5.884;2022-11-27T09:05:29;8.13;81.42
71523;HTU21D;59343;51.102;5.884;2022-11-27T09:07:55;8.12;81.64
71523;HTU21D;59343;51.102;5.884;2022-11-27T09:10:21;8.14;81.77
71523;HTU21D;59343;51.102;5.884;2022-11-27T09:12:48;8.15;81.91
71523;HTU21D;59343;51.102;5.884;2022-11-27T09:15:15;8.17;81.91
71523;HTU21D;59343;51.102;5.884;2022-11-27T09:17:41;8.20;81.94
71523;HTU21D;59343;51.102;5.884;2022-11-27T09:20:08;8.22;81.81
71523;HTU21D;59343;51.102;5.884;2022-11-27T09:22:35;8.27;81.78
71523;HTU21D;59343;51.102;5.884;2022-11-27T09:25:01;8.27;81.88
71523;HTU21D;59343;51.102;5.884;2022-11-27T09:27:27;8.30;81.92
71523;HTU21D;59343;51.102;5.884;2022-11-27T09:29:53;8.31;81.79
71523;HTU21D;59343;51.102;5.884;2022-11-27T09:32:21;8.31;81.98
71523;HTU21D;59343;51.102;5.884;2022-11-27T09:34:47;8.33;82.04
71523;HTU21D;59343;51.102;5.884;2022-11-27T09:37:13;8.34;82.08
71523;HTU21D;59343;51.102;5.884;2022-11-27T09:39:39;8.33;82.13
71523;HTU21D;59343;51.102;5.884;2022-11-27T09:42:06;8.36;82.18
71523;HTU21D;59343;51.102;5.884;2022-11-27T09:44:51;8.42;82.11
71523;HTU21D;59343;51.102;5.884;2022-11-27T09:47:48;8.47;82.03
71523;HTU21D;59343;51.102;5.884;2022-11-27T09:50:16;8.50;82.04
71523;HTU21D;59343;51.102;5.884;2022-11-27T09:52:57;8.53;81.94
71523;HTU21D;59343;51.102;5.884;2022-11-27T09:58:22;8.58;81.75
71523;HTU21D;59343;51.102;5.884;2022-11-27T10:00:51;8.61;81.68
71523;HTU21D;59343;51.102;5.884;2022-11-27T10:03:23;8.64;81.88
71523;HTU21D;59343;51.102;5.884;2022-11-27T10:06:05;8.71;81.85
71523;HTU21D;59343;51.102;5.884;2022-11-27T10:11:36;8.75;81.73
71523;HTU21D;59343;51.102;5.884;2022-11-27T10:16:53;8.79;81.68
71523;HTU21D;59343;51.102;5.884;2022-11-27T10:22:18;8.87;81.49
71523;HTU21D;59343;51.102;5.884;2022-11-27T10:27:42;8.95;80.82
71523;HTU21D;59343;51.102;5.884;2022-11-27T10:30:16;9.03;80.86
71523;HTU21D;59343;51.102;5.884;2022-11-27T10:32:44;9.07;81.10
71523;HTU21D;59343;51.102;5.884;2022-11-27T10:35:16;9.12;80.89
71523;HTU21D;59343;51.102;5.884;2022-11-27T10:43:02;9.24;80.72
71523;HTU21D;59343;51.102;5.884;2022-11-27T10:45:46;9.27;80.40
71523;HTU21D;59343;51.102;5.884;2022-11-27T10:48:15;9.29;80.14
71523;HTU21D;59343;51.102;5.884;2022-11-27T10:50:42;9.29;80.09
71523;HTU21D;59343;51.102;5.884;2022-11-27T10:53:34;9.31;79.90
71523;HTU21D;59343;51.102;5.884;2022-11-27T10:58:55;9.35;80.08
71523;HTU21D;59343;51.102;5.884;2022-11-27T11:01:25;9.39;80.28
71523;HTU21D;59343;51.102;5.884;2022-11-27T11:04:04;9.42;80.44
71523;HTU21D;59343;51.102;5.884;2022-11-27T11:06:37;9.47;80.37
71523;HTU21D;59343;51.102;5.884;2022-11-27T11:09:13;9.48;80.09
71523;HTU21D;59343;51.102;5.884;2022-11-27T11:11:40;9.52;80.18
71523;HTU21D;59343;51.102;5.884;2022-11-27T11:14:22;9.59;79.93
71523;HTU21D;59343;51.102;5.884;2022-11-27T11:16:49;9.63;80.17
71523;HTU21D;59343;51.102;5.884;2022-11-27T11:19:30;9.68;80.04
71523;HTU21D;59343;51.102;5.884;2022-11-27T11:21:59;9.72;79.99
71523;HTU21D;59343;51.102;5.884;2022-11-27T11:24:34;9.78;79.75
71523;HTU21D;59343;51.102;5.884;2022-11-27T11:27:17;9.83;79.61
71523;HTU21D;59343;51.102;5.884;2022-11-27T11:29:50;9.90;79.59
71523;HTU21D;59343;51.102;5.884;2022-11-27T11:34:52;9.97;79.73
71523;HTU21D;59343;51.102;5.884;2022-11-27T11:37:30;9.99;80.06
71523;HTU21D;59343;51.102;5.884;2022-11-27T11:42:54;10.04;79.72
71523;HTU21D;59343;51.102;5.884;2022-11-27T11:45:22;10.06;79.52
71523;HTU21D;59343;51.102;5.884;2022-11-27T11:47:56;10.07;79.42
71523;HTU21D;59343;51.102;5.884;2022-11-27T11:50:48;10.09;79.35
71523;HTU21D;59343;51.102;5.884;2022-11-27T11:56:30;10.14;79.45
71523;HTU21D;59343;51.102;5.884;2022-11-27T12:07:45;10.21;79.43
71523;HTU21D;59343;51.102;5.884;2022-11-27T12:13:03;10.23;79.23
71523;HTU21D;59343;51.102;5.884;2022-11-27T12:15:48;10.23;79.08
71523;HTU21D;59343;51.102;5.884;2022-11-27T12:18:29;10.23;79.02
71523;HTU21D;59343;51.102;5.884;2022-11-27T12:21:12;10.26;79.10
71523;HTU21D;59343;51.102;5.884;2022-11-27T12:38:50;10.36;79.24
71523;HTU21D;59343;51.102;5.884;2022-11-27T12:41:40;10.37;79.07
71523;HTU21D;59343;51.102;5.884;2022-11-27T12:44:46;10.37;79.07
71523;HTU21D;59343;51.102;5.884;2022-11-27T12:47:24;10.35;79.18
71523;HTU21D;59343;51.102;5.884;2022-11-27T12:50:03;10.34;79.04
71523;HTU21D;59343;51.102;5.884;2022-11-27T12:52:45;10.30;79.13
71523;HTU21D;59343;51.102;5.884;2022-11-27T12:55:25;10.27;79.21
71523;HTU21D;59343;51.102;5.884;2022-11-27T12:58:00;10.26;79.27
71523;HTU21D;59343;51.102;5.884;2022-11-27T13:00:30;10.28;79.21
71523;HTU21D;59343;51.102;5.884;2022-11-27T13:03:21;10.24;78.95
71523;HTU21D;59343;51.102;5.884;2022-11-27T13:06:07;10.24;79.01
71523;HTU21D;59343;51.102;5.884;2022-11-27T13:08:58;10.26;79.17
71523;HTU21D;59343;51.102;5.884;2022-11-27T13:11:36;10.21;78.85
71523;HTU21D;59343;51.102;5.884;2022-11-27T13:14:24;10.19;79.14
71523;HTU21D;59343;51.102;5.884;2022-11-27T13:17:09;10.18;79.30
71523;HTU21D;59343;51.102;5.884;2022-11-27T13:19:49;10.20;79.30
71523;HTU21D;59343;51.102;5.884;2022-11-27T13:22:36;10.18;79.23
71523;HTU21D;59343;51.102;5.884;2022-11-27T13:25:03;10.19;79.28
71523;HTU21D;59343;51.102;5.884;2022-11-27T13:31:07;10.14;79.14
71523;HTU21D;59343;51.102;5.884;2022-11-27T13:33:41;10.15;79.21
71523;HTU21D;59343;51.102;5.884;2022-11-27T13:36:38;10.15;79.21
71523;HTU21D;59343;51.102;5.884;2022-11-27T13:39:06;10.14;79.26
71523;HTU21D;59343;51.102;5.884;2022-11-27T13:41:37;10.14;79.22
71523;HTU21D;59343;51.102;5.884;2022-11-27T13:44:25;10.15;79.21
71523;HTU21D;59343;51.102;5.884;2022-11-27T13:47:03;10.16;79.21
71523;HTU21D;59343;51.102;5.884;2022-11-27T13:49:33;10.18;79.05
71523;HTU21D;59343;51.102;5.884;2022-11-27T13:52:08;10.23;78.91
71523;HTU21D;59343;51.102;5.884;2022-11-27T13:55:00;10.19;79.04
71523;HTU21D;59343;51.102;5.884;2022-11-27T13:57:30;10.18;79.01
71523;HTU21D;59343;51.102;5.884;2022-11-27T14:05:11;10.21;79.01
71523;HTU21D;59343;51.102;5.884;2022-11-27T14:07:59;10.23;79.08
71523;HTU21D;59343;51.102;5.884;2022-11-27T14:10:29;10.23;79.14
71523;HTU21D;59343;51.102;5.884;2022-11-27T14:13:06;10.24;79.10
71523;HTU21D;59343;51.102;5.884;2022-11-27T14:15:35;10.24;79.05
71523;HTU21D;59343;51.102;5.884;2022-11-27T14:18:20;10.24;79.08
71523;HTU21D;59343;51.102;5.884;2022-11-27T14:21:02;10.24;79.04
71523;HTU21D;59343;51.102;5.884;2022-11-27T14:28:29;10.22;79.11
71523;HTU21D;59343;51.102;5.884;2022-11-27T14:30:59;10.21;78.85
71523;HTU21D;59343;51.102;5.884;2022-11-27T14:33:33;10.22;78.72
71523;HTU21D;59343;51.102;5.884;2022-11-27T14:36:03;10.24;78.30
71523;HTU21D;59343;51.102;5.884;2022-11-27T14:38:31;10.27;77.95
71523;HTU21D;59343;51.102;5.884;2022-11-27T14:41:10;10.29;77.93
71523;HTU21D;59343;51.102;5.884;2022-11-27T14:43:40;10.29;77.95
71523;HTU21D;59343;51.102;5.884;2022-11-27T14:46:16;10.29;77.96
71523;HTU21D;59343;51.102;5.884;2022-11-27T14:48:46;10.30;78.21
71523;HTU21D;59343;51.102;5.884;2022-11-27T14:51:19;10.31;78.18
71523;HTU21D;59343;51.102;5.884;2022-11-27T14:53:48;10.33;78.29
71523;HTU21D;59343;51.102;5.884;2022-11-27T14:56:16;10.31;78.49
71523;HTU21D;59343;51.102;5.884;2022-11-27T14:58:49;10.33;78.64
71523;HTU21D;59343;51.102;5.884;2022-11-27T15:01:26;10.33;78.75
71523;HTU21D;59343;51.102;5.884;2022-11-27T15:06:23;10.30;78.94
71523;HTU21D;59343;51.102;5.884;2022-11-27T15:08:49;10.29;78.77
71523;HTU21D;59343;51.102;5.884;2022-11-27T15:11:16;10.29;78.73
71523;HTU21D;59343;51.102;5.884;2022-11-27T15:13:51;10.30;78.68
71523;HTU21D;59343;51.102;5.884;2022-11-27T15:16:25;10.31;78.50
71523;HTU21D;59343;51.102;5.884;2022-11-27T15:19:04;10.31;78.50
71523;HTU21D;59343;51.102;5.884;2022-11-27T15:21:36;10.33;78.58
71523;HTU21D;59343;51.102;5.884;2022-11-27T15:24:03;10.33;78.59
71523;HTU21D;59343;51.102;5.884;2022-11-27T15:26:35;10.31;78.68
71523;HTU21D;59343;51.102;5.884;2022-11-27T15:31:56;10.28;78.63
71523;HTU21D;59343;51.102;5.884;2022-11-27T15:34:23;10.29;78.30
71523;HTU21D;59343;51.102;5.884;2022-11-27T15:37:01;10.27;78.09
71523;HTU21D;59343;51.102;5.884;2022-11-27T15:39:54;10.25;78.02
71523;HTU21D;59343;51.102;5.884;2022-11-27T15:42:21;10.26;78.12
71523;HTU21D;59343;51.102;5.884;2022-11-27T15:44:53;10.23;78.01
71523;HTU21D;59343;51.102;5.884;2022-11-27T15:47:26;10.24;77.92
71523;HTU21D;59343;51.102;5.884;2022-11-27T15:49:58;10.23;77.67
71523;HTU21D;59343;51.102;5.884;2022-11-27T15:52:25;10.26;77.53
71523;HTU21D;59343;51.102;5.884;2022-11-27T15:54:52;10.23;77.37
71523;HTU21D;59343;51.102;5.884;2022-11-27T15:57:22;10.21;77.27
71523;HTU21D;59343;51.102;5.884;2022-11-27T15:59:49;10.20;77.05
71523;HTU21D;59343;51.102;5.884;2022-11-27T16:02:15;10.22;77.03
71523;HTU21D;59343;51.102;5.884;2022-11-27T16:04:41;10.21;77.08
71523;HTU21D;59343;51.102;5.884;2022-11-27T16:07:07;10.24;76.98
71523;HTU21D;59343;51.102;5.884;2022-11-27T16:09:34;10.23;77.00
71523;HTU21D;59343;51.102;5.884;2022-11-27T16:12:01;10.23;76.95
71523;HTU21D;59343;51.102;5.884;2022-11-27T16:14:28;10.23;76.67
71523;HTU21D;59343;51.102;5.884;2022-11-27T16:16:54;10.20;76.69
71523;HTU21D;59343;51.102;5.884;2022-11-27T16:19:20;10.20;76.66
71523;HTU21D;59343;51.102;5.884;2022-11-27T16:21:46;10.19;76.70
71523;HTU21D;59343;51.102;5.884;2022-11-27T16:24:14;10.18;76.62
71523;HTU21D;59343;51.102;5.884;2022-11-27T16:26:40;10.15;76.54
71523;HTU21D;59343;51.102;5.884;2022-11-27T16:29:08;10.14;76.41
71523;HTU21D;59343;51.102;5.884;2022-11-27T16:31:35;10.13;76.38
71523;HTU21D;59343;51.102;5.884;2022-11-27T16:34:02;10.10;76.44
71523;HTU21D;59343;51.102;5.884;2022-11-27T16:36:31;10.11;76.31
71523;HTU21D;59343;51.102;5.884;2022-11-27T16:39:22;10.09;76.12
71523;HTU21D;59343;51.102;5.884;2022-11-27T16:41:49;10.09;76.27
71523;HTU21D;59343;51.102;5.884;2022-11-27T16:44:15;10.06;76.14
71523;HTU21D;59343;51.102;5.884;2022-11-27T16:46:42;10.06;75.97
71523;HTU21D;59343;51.102;5.884;2022-11-27T16:49:12;10.04;75.84
71523;HTU21D;59343;51.102;5.884;2022-11-27T16:51:39;10.01;75.89
71523;HTU21D;59343;51.102;5.884;2022-11-27T16:54:10;10.00;75.99
71523;HTU21D;59343;51.102;5.884;2022-11-27T16:56:39;10.01;76.02
71523;HTU21D;59343;51.102;5.884;2022-11-27T16:59:08;10.03;75.97
71523;HTU21D;59343;51.102;5.884;2022-11-27T17:01:35;10.04;75.77
71523;HTU21D;59343;51.102;5.884;2022-11-27T17:04:03;10.05;75.74
71523;HTU21D;59343;51.102;5.884;2022-11-27T17:06:32;10.06;75.25
71523;HTU21D;59343;51.102;5.884;2022-11-27T17:09:01;10.08;75.21
71523;HTU21D;59343;51.102;5.884;2022-11-27T17:11:30;10.08;75.05
71523;HTU21D;59343;51.102;5.884;2022-11-27T17:14:03;10.08;74.81
71523;HTU21D;59343;51.102;5.884;2022-11-27T17:16:31;10.08;74.91
71523;HTU21D;59343;51.102;5.884;2022-11-27T17:18:57;10.09;74.99
71523;HTU21D;59343;51.102;5.884;2022-11-27T17:21:27;10.09;75.04
71523;HTU21D;59343;51.102;5.884;2022-11-27T17:23:56;10.11;75.33
71523;HTU21D;59343;51.102;5.884;2022-11-27T17:26:24;10.08;75.35
71523;HTU21D;59343;51.102;5.884;2022-11-27T17:28:51;10.09;75.50
71523;HTU21D;59343;51.102;5.884;2022-11-27T17:31:24;10.11;75.66
71523;HTU21D;59343;51.102;5.884;2022-11-27T17:33:50;10.11;75.67
71523;HTU21D;59343;51.102;5.884;2022-11-27T17:36:17;10.08;75.84
71523;HTU21D;59343;51.102;5.884;2022-11-27T17:38:44;10.05;76.20
71523;HTU21D;59343;51.102;5.884;2022-11-27T17:41:12;10.04;76.20
71523;HTU21D;59343;51.102;5.884;2022-11-27T17:43:39;10.04;76.34